sensor_id;sensor_type;location;lat;lon;timestamp;P1;durP1;ratioP1;P2;durP2;ratioP2
63087;SDS011;49173;43.164;27.786;2023-04-15T00:02:14;7.30;;;4.40;;
63087;SDS011;49173;43.164;27.786;2023-04-15T00:04:42;9.65;;;5.30;;
63087;SDS011;49173;43.164;27.786;2023-04-15T00:07:12;9.82;;;5.38;;
63087;SDS011;49173;43.164;27.786;2023-04-15T00:09:42;8.57;;;4.10;;
63087;SDS011;49173;43.164;27.786;2023-04-15T00:14:36;8.20;;;3.28;;
63087;SDS011;49173;43.164;27.786;2023-04-15T00:17:02;7.82;;;3.28;;
63087;SDS011;49173;43.164;27.786;2023-04-15T00:19:28;8.68;;;2.90;;
63087;SDS011;49173;43.164;27.786;2023-04-15T00:21:55;10.05;;;2.95;;
63087;SDS011;49173;43.164;27.786;2023-04-15T00:24:21;9.55;;;2.80;;
63087;SDS011;49173;43.164;27.786;2023-04-15T00:26:47;11.93;;;3.40;;
63087;SDS011;49173;43.164;27.786;2023-04-15T00:29:14;8.10;;;2.72;;
63087;SDS011;49173;43.164;27.786;2023-04-15T00:31:39;12.10;;;3.17;;
63087;SDS011;49173;43.164;27.786;2023-04-15T00:34:06;16.52;;;4.60;;
63087;SDS011;49173;43.164;27.786;2023-04-15T00:36:32;10.10;;;3.90;;
63087;SDS011;49173;43.164;27.786;2023-04-15T00:38:59;11.38;;;3.78;;
63087;SDS011;49173;43.164;27.786;2023-04-15T00:41:25;10.27;;;3.72;;
63087;SDS011;49173;43.164;27.786;2023-04-15T00:43:51;7.47;;;3.55;;
63087;SDS011;49173;43.164;27.786;2023-04-15T00:46:17;5.97;;;3.47;;
63087;SDS011;49173;43.164;27.786;2023-04-15T00:48:45;6.45;;;3.72;;
63087;SDS011;49173;43.164;27.786;2023-04-15T00:51:12;7.88;;;3.40;;
63087;SDS011;49173;43.164;27.786;2023-04-15T00:53:39;10.30;;;3.90;;
63087;SDS011;49173;43.164;27.786;2023-04-15T00:56:05;8.50;;;3.45;;
63087;SDS011;49173;43.164;27.786;2023-04-15T00:58:31;9.85;;;3.85;;
63087;SDS011;49173;43.164;27.786;2023-04-15T01:00:57;11.10;;;3.63;;
63087;SDS011;49173;43.164;27.786;2023-04-15T01:03:24;7.95;;;3.58;;
63087;SDS011;49173;43.164;27.786;2023-04-15T01:05:50;9.68;;;3.80;;
63087;SDS011;49173;43.164;27.786;2023-04-15T01:08:28;15.10;;;5.05;;
63087;SDS011;49173;43.164;27.786;2023-04-15T01:10:57;8.77;;;3.67;;
63087;SDS011;49173;43.164;27.786;2023-04-15T01:13:26;9.55;;;3.35;;
63087;SDS011;49173;43.164;27.786;2023-04-15T01:15:52;8.95;;;3.22;;
63087;SDS011;49173;43.164;27.786;2023-04-15T01:18:21;10.55;;;3.50;;
63087;SDS011;49173;43.164;27.786;2023-04-15T01:20:47;9.90;;;3.28;;
63087;SDS011;49173;43.164;27.786;2023-04-15T01:23:13;8.02;;;3.22;;
63087;SDS011;49173;43.164;27.786;2023-04-15T01:25:39;8.32;;;3.10;;
63087;SDS011;49173;43.164;27.786;2023-04-15T01:28:06;12.48;;;3.42;;
63087;SDS011;49173;43.164;27.786;2023-04-15T01:30:38;11.02;;;4.60;;
63087;SDS011;49173;43.164;27.786;2023-04-15T01:33:03;9.65;;;3.88;;
63087;SDS011;49173;43.164;27.786;2023-04-15T01:35:29;8.85;;;3.40;;
63087;SDS011;49173;43.164;27.786;2023-04-15T01:37:55;9.25;;;3.92;;
63087;SDS011;49173;43.164;27.786;2023-04-15T01:40:34;7.00;;;3.73;;
63087;SDS011;49173;43.164;27.786;2023-04-15T01:43:00;8.23;;;3.42;;
63087;SDS011;49173;43.164;27.786;2023-04-15T01:45:27;7.45;;;3.65;;
63087;SDS011;49173;43.164;27.786;2023-04-15T01:47:53;6.03;;;3.42;;
63087;SDS011;49173;43.164;27.786;2023-04-15T01:50:18;9.32;;;3.20;;
63087;SDS011;49173;43.164;27.786;2023-04-15T01:52:45;9.73;;;3.78;;
63087;SDS011;49173;43.164;27.786;2023-04-15T01:55:12;10.88;;;3.97;;
63087;SDS011;49173;43.164;27.786;2023-04-15T01:57:38;5.68;;;3.13;;
63087;SDS011;49173;43.164;27.786;2023-04-15T02:00:04;11.75;;;4.25;;
63087;SDS011;49173;43.164;27.786;2023-04-15T02:02:32;11.15;;;3.70;;
63087;SDS011;49173;43.164;27.786;2023-04-15T02:04:58;11.02;;;4.47;;
63087;SDS011;49173;43.164;27.786;2023-04-15T02:07:24;8.73;;;4.30;;
63087;SDS011;49173;43.164;27.786;2023-04-15T02:09:53;13.45;;;5.00;;
63087;SDS011;49173;43.164;27.786;2023-04-15T02:12:18;10.55;;;3.58;;
63087;SDS011;49173;43.164;27.786;2023-04-15T02:14:44;9.45;;;3.88;;
63087;SDS011;49173;43.164;27.786;2023-04-15T02:17:10;11.15;;;3.80;;
63087;SDS011;49173;43.164;27.786;2023-04-15T02:19:36;9.80;;;3.72;;
63087;SDS011;49173;43.164;27.786;2023-04-15T02:22:03;9.18;;;4.53;;
63087;SDS011;49173;43.164;27.786;2023-04-15T02:24:29;13.45;;;4.70;;
63087;SDS011;49173;43.164;27.786;2023-04-15T02:26:55;14.70;;;4.47;;
63087;SDS011;49173;43.164;27.786;2023-04-15T02:29:21;13.77;;;4.38;;
63087;SDS011;49173;43.164;27.786;2023-04-15T02:32:06;13.25;;;4.47;;
63087;SDS011;49173;43.164;27.786;2023-04-15T02:34:32;9.10;;;4.32;;
63087;SDS011;49173;43.164;27.786;2023-04-15T02:36:58;12.50;;;4.72;;
63087;SDS011;49173;43.164;27.786;2023-04-15T02:39:23;11.25;;;4.20;;
63087;SDS011;49173;43.164;27.786;2023-04-15T02:41:49;10.77;;;4.18;;
63087;SDS011;49173;43.164;27.786;2023-04-15T02:44:18;10.18;;;4.50;;
63087;SDS011;49173;43.164;27.786;2023-04-15T02:46:45;9.63;;;4.15;;
63087;SDS011;49173;43.164;27.786;2023-04-15T02:49:17;11.80;;;3.75;;
63087;SDS011;49173;43.164;27.786;2023-04-15T02:51:43;11.73;;;4.65;;
63087;SDS011;49173;43.164;27.786;2023-04-15T02:54:14;14.05;;;4.40;;
63087;SDS011;49173;43.164;27.786;2023-04-15T02:56:41;12.48;;;3.85;;
63087;SDS011;49173;43.164;27.786;2023-04-15T02:59:07;12.70;;;3.85;;
63087;SDS011;49173;43.164;27.786;2023-04-15T03:01:33;12.65;;;3.78;;
63087;SDS011;49173;43.164;27.786;2023-04-15T03:03:58;11.93;;;4.43;;
63087;SDS011;49173;43.164;27.786;2023-04-15T03:06:24;16.73;;;4.70;;
63087;SDS011;49173;43.164;27.786;2023-04-15T03:08:50;11.30;;;3.85;;
63087;SDS011;49173;43.164;27.786;2023-04-15T03:11:16;7.78;;;3.63;;
63087;SDS011;49173;43.164;27.786;2023-04-15T03:13:42;15.18;;;4.43;;
63087;SDS011;49173;43.164;27.786;2023-04-15T03:16:08;10.63;;;3.90;;
63087;SDS011;49173;43.164;27.786;2023-04-15T03:18:34;9.48;;;3.63;;
63087;SDS011;49173;43.164;27.786;2023-04-15T03:21:00;9.57;;;3.58;;
63087;SDS011;49173;43.164;27.786;2023-04-15T03:23:27;10.68;;;4.13;;
63087;SDS011;49173;43.164;27.786;2023-04-15T03:25:53;12.63;;;4.10;;
63087;SDS011;49173;43.164;27.786;2023-04-15T03:30:48;10.55;;;4.18;;
63087;SDS011;49173;43.164;27.786;2023-04-15T03:33:32;12.25;;;3.75;;
63087;SDS011;49173;43.164;27.786;2023-04-15T03:35:58;11.98;;;3.88;;
63087;SDS011;49173;43.164;27.786;2023-04-15T03:38:24;16.23;;;4.00;;
63087;SDS011;49173;43.164;27.786;2023-04-15T03:40:50;12.38;;;4.53;;
63087;SDS011;49173;43.164;27.786;2023-04-15T03:43:15;9.50;;;4.20;;
63087;SDS011;49173;43.164;27.786;2023-04-15T03:45:41;12.43;;;4.65;;
63087;SDS011;49173;43.164;27.786;2023-04-15T03:48:07;9.50;;;3.55;;
63087;SDS011;49173;43.164;27.786;2023-04-15T03:50:33;9.73;;;4.80;;
63087;SDS011;49173;43.164;27.786;2023-04-15T03:52:58;14.70;;;6.15;;
63087;SDS011;49173;43.164;27.786;2023-04-15T03:55:26;12.25;;;5.45;;
63087;SDS011;49173;43.164;27.786;2023-04-15T03:57:51;16.20;;;7.15;;
63087;SDS011;49173;43.164;27.786;2023-04-15T04:00:17;15.93;;;6.95;;
63087;SDS011;49173;43.164;27.786;2023-04-15T04:02:44;17.02;;;6.28;;
63087;SDS011;49173;43.164;27.786;2023-04-15T04:05:10;12.85;;;6.30;;
63087;SDS011;49173;43.164;27.786;2023-04-15T04:07:36;13.63;;;6.82;;
63087;SDS011;49173;43.164;27.786;2023-04-15T04:10:01;15.68;;;7.10;;
63087;SDS011;49173;43.164;27.786;2023-04-15T04:12:28;10.75;;;6.20;;
63087;SDS011;49173;43.164;27.786;2023-04-15T04:14:53;11.27;;;5.35;;
63087;SDS011;49173;43.164;27.786;2023-04-15T04:17:19;39.10;;;17.27;;
63087;SDS011;49173;43.164;27.786;2023-04-15T04:19:45;55.60;;;21.95;;
63087;SDS011;49173;43.164;27.786;2023-04-15T04:22:11;24.48;;;10.00;;
63087;SDS011;49173;43.164;27.786;2023-04-15T04:24:37;13.43;;;6.00;;
63087;SDS011;49173;43.164;27.786;2023-04-15T04:27:03;11.88;;;5.63;;
63087;SDS011;49173;43.164;27.786;2023-04-15T04:29:28;10.65;;;5.18;;
63087;SDS011;49173;43.164;27.786;2023-04-15T04:31:54;17.40;;;5.38;;
63087;SDS011;49173;43.164;27.786;2023-04-15T04:34:20;12.30;;;4.70;;
63087;SDS011;49173;43.164;27.786;2023-04-15T04:36:46;12.68;;;5.45;;
63087;SDS011;49173;43.164;27.786;2023-04-15T04:39:12;13.23;;;4.85;;
63087;SDS011;49173;43.164;27.786;2023-04-15T04:41:37;18.05;;;4.63;;
63087;SDS011;49173;43.164;27.786;2023-04-15T04:44:03;12.75;;;4.00;;
63087;SDS011;49173;43.164;27.786;2023-04-15T04:46:29;13.68;;;4.03;;
63087;SDS011;49173;43.164;27.786;2023-04-15T04:48:55;8.43;;;3.67;;
63087;SDS011;49173;43.164;27.786;2023-04-15T04:51:21;13.40;;;3.53;;
63087;SDS011;49173;43.164;27.786;2023-04-15T04:53:47;10.02;;;3.90;;
63087;SDS011;49173;43.164;27.786;2023-04-15T04:56:13;13.55;;;4.13;;
63087;SDS011;49173;43.164;27.786;2023-04-15T04:58:38;12.52;;;4.18;;
63087;SDS011;49173;43.164;27.786;2023-04-15T05:01:04;11.00;;;4.22;;
63087;SDS011;49173;43.164;27.786;2023-04-15T05:03:30;9.63;;;4.95;;
63087;SDS011;49173;43.164;27.786;2023-04-15T05:05:56;11.10;;;4.63;;
63087;SDS011;49173;43.164;27.786;2023-04-15T05:08:22;16.23;;;4.72;;
63087;SDS011;49173;43.164;27.786;2023-04-15T05:10:48;12.98;;;4.60;;
63087;SDS011;49173;43.164;27.786;2023-04-15T05:13:14;13.35;;;4.55;;
63087;SDS011;49173;43.164;27.786;2023-04-15T05:15:39;13.25;;;4.72;;
63087;SDS011;49173;43.164;27.786;2023-04-15T05:18:07;7.47;;;3.97;;
63087;SDS011;49173;43.164;27.786;2023-04-15T05:20:33;9.68;;;4.38;;
63087;SDS011;49173;43.164;27.786;2023-04-15T05:22:58;15.75;;;4.90;;
63087;SDS011;49173;43.164;27.786;2023-04-15T05:25:25;11.63;;;3.65;;
63087;SDS011;49173;43.164;27.786;2023-04-15T05:27:51;15.43;;;4.68;;
63087;SDS011;49173;43.164;27.786;2023-04-15T05:30:17;15.90;;;5.32;;
63087;SDS011;49173;43.164;27.786;2023-04-15T05:32:42;12.52;;;6.30;;
63087;SDS011;49173;43.164;27.786;2023-04-15T05:35:08;12.00;;;6.60;;
63087;SDS011;49173;43.164;27.786;2023-04-15T05:37:34;15.02;;;6.40;;
63087;SDS011;49173;43.164;27.786;2023-04-15T05:39:59;13.98;;;6.00;;
63087;SDS011;49173;43.164;27.786;2023-04-15T05:42:25;13.27;;;6.70;;
63087;SDS011;49173;43.164;27.786;2023-04-15T05:44:51;13.27;;;6.80;;
63087;SDS011;49173;43.164;27.786;2023-04-15T05:47:17;14.05;;;7.00;;
63087;SDS011;49173;43.164;27.786;2023-04-15T05:49:43;14.75;;;7.68;;
63087;SDS011;49173;43.164;27.786;2023-04-15T05:52:10;12.88;;;7.88;;
63087;SDS011;49173;43.164;27.786;2023-04-15T05:54:36;15.57;;;6.18;;
63087;SDS011;49173;43.164;27.786;2023-04-15T05:57:02;10.23;;;5.80;;
63087;SDS011;49173;43.164;27.786;2023-04-15T05:59:28;11.38;;;5.93;;
63087;SDS011;49173;43.164;27.786;2023-04-15T06:01:54;14.15;;;6.03;;
63087;SDS011;49173;43.164;27.786;2023-04-15T06:04:19;16.00;;;7.18;;
63087;SDS011;49173;43.164;27.786;2023-04-15T06:06:46;14.55;;;5.90;;
63087;SDS011;49173;43.164;27.786;2023-04-15T06:09:12;15.68;;;5.97;;
63087;SDS011;49173;43.164;27.786;2023-04-15T06:11:38;9.27;;;4.68;;
63087;SDS011;49173;43.164;27.786;2023-04-15T06:14:06;17.83;;;5.60;;
63087;SDS011;49173;43.164;27.786;2023-04-15T06:16:32;8.90;;;5.70;;
63087;SDS011;49173;43.164;27.786;2023-04-15T06:18:58;13.20;;;6.15;;
63087;SDS011;49173;43.164;27.786;2023-04-15T06:21:24;16.58;;;8.10;;
63087;SDS011;49173;43.164;27.786;2023-04-15T06:23:49;18.95;;;10.65;;
63087;SDS011;49173;43.164;27.786;2023-04-15T06:26:15;24.35;;;13.57;;
63087;SDS011;49173;43.164;27.786;2023-04-15T06:28:41;18.05;;;10.05;;
63087;SDS011;49173;43.164;27.786;2023-04-15T06:31:07;22.35;;;12.25;;
63087;SDS011;49173;43.164;27.786;2023-04-15T06:33:33;20.42;;;10.98;;
63087;SDS011;49173;43.164;27.786;2023-04-15T06:35:58;14.77;;;9.18;;
63087;SDS011;49173;43.164;27.786;2023-04-15T06:38:25;15.55;;;8.63;;
63087;SDS011;49173;43.164;27.786;2023-04-15T06:40:51;13.30;;;7.57;;
63087;SDS011;49173;43.164;27.786;2023-04-15T06:43:17;10.73;;;5.40;;
63087;SDS011;49173;43.164;27.786;2023-04-15T06:45:43;12.23;;;5.70;;
63087;SDS011;49173;43.164;27.786;2023-04-15T06:48:08;6.78;;;3.75;;
63087;SDS011;49173;43.164;27.786;2023-04-15T06:50:34;9.40;;;3.65;;
63087;SDS011;49173;43.164;27.786;2023-04-15T06:53:02;9.65;;;3.85;;
63087;SDS011;49173;43.164;27.786;2023-04-15T06:55:28;8.95;;;4.22;;
63087;SDS011;49173;43.164;27.786;2023-04-15T06:57:54;9.55;;;3.72;;
63087;SDS011;49173;43.164;27.786;2023-04-15T07:00:19;5.97;;;3.38;;
63087;SDS011;49173;43.164;27.786;2023-04-15T07:02:45;4.95;;;3.10;;
63087;SDS011;49173;43.164;27.786;2023-04-15T07:05:12;5.88;;;2.83;;
63087;SDS011;49173;43.164;27.786;2023-04-15T07:07:37;7.25;;;2.90;;
63087;SDS011;49173;43.164;27.786;2023-04-15T07:10:03;8.10;;;3.35;;
63087;SDS011;49173;43.164;27.786;2023-04-15T07:12:29;8.57;;;3.05;;
63087;SDS011;49173;43.164;27.786;2023-04-15T07:14:55;7.85;;;2.92;;
63087;SDS011;49173;43.164;27.786;2023-04-15T07:17:21;9.90;;;5.25;;
63087;SDS011;49173;43.164;27.786;2023-04-15T07:19:47;28.30;;;10.88;;
63087;SDS011;49173;43.164;27.786;2023-04-15T07:22:12;40.20;;;16.90;;
63087;SDS011;49173;43.164;27.786;2023-04-15T07:24:38;13.80;;;6.07;;
63087;SDS011;49173;43.164;27.786;2023-04-15T07:27:04;6.60;;;3.10;;
63087;SDS011;49173;43.164;27.786;2023-04-15T07:29:30;7.20;;;3.28;;
63087;SDS011;49173;43.164;27.786;2023-04-15T07:31:55;4.78;;;2.35;;
63087;SDS011;49173;43.164;27.786;2023-04-15T07:34:21;5.18;;;2.38;;
63087;SDS011;49173;43.164;27.786;2023-04-15T07:36:47;6.88;;;2.92;;
63087;SDS011;49173;43.164;27.786;2023-04-15T07:39:17;5.88;;;3.80;;
63087;SDS011;49173;43.164;27.786;2023-04-15T07:41:43;5.95;;;3.45;;
63087;SDS011;49173;43.164;27.786;2023-04-15T07:44:09;6.85;;;3.00;;
63087;SDS011;49173;43.164;27.786;2023-04-15T07:46:35;5.60;;;2.60;;
63087;SDS011;49173;43.164;27.786;2023-04-15T07:49:02;6.20;;;1.80;;
63087;SDS011;49173;43.164;27.786;2023-04-15T07:51:28;5.13;;;2.60;;
63087;SDS011;49173;43.164;27.786;2023-04-15T07:53:55;6.32;;;4.05;;
63087;SDS011;49173;43.164;27.786;2023-04-15T07:56:20;8.30;;;2.83;;
63087;SDS011;49173;43.164;27.786;2023-04-15T07:58:46;5.03;;;1.75;;
63087;SDS011;49173;43.164;27.786;2023-04-15T08:01:12;4.10;;;2.17;;
63087;SDS011;49173;43.164;27.786;2023-04-15T08:03:38;4.07;;;1.98;;
63087;SDS011;49173;43.164;27.786;2023-04-15T08:06:04;4.50;;;1.80;;
63087;SDS011;49173;43.164;27.786;2023-04-15T08:08:30;4.60;;;1.60;;
63087;SDS011;49173;43.164;27.786;2023-04-15T08:10:57;5.18;;;1.70;;
63087;SDS011;49173;43.164;27.786;2023-04-15T08:13:23;7.03;;;2.50;;
63087;SDS011;49173;43.164;27.786;2023-04-15T08:15:52;5.53;;;2.20;;
63087;SDS011;49173;43.164;27.786;2023-04-15T08:18:38;14.52;;;2.58;;
63087;SDS011;49173;43.164;27.786;2023-04-15T08:21:04;5.63;;;1.90;;
63087;SDS011;49173;43.164;27.786;2023-04-15T08:23:30;4.47;;;2.38;;
63087;SDS011;49173;43.164;27.786;2023-04-15T08:25:57;6.00;;;2.88;;
63087;SDS011;49173;43.164;27.786;2023-04-15T08:28:22;6.50;;;2.92;;
63087;SDS011;49173;43.164;27.786;2023-04-15T08:30:48;6.05;;;2.47;;
63087;SDS011;49173;43.164;27.786;2023-04-15T08:33:14;4.50;;;2.15;;
63087;SDS011;49173;43.164;27.786;2023-04-15T08:35:40;5.47;;;2.30;;
63087;SDS011;49173;43.164;27.786;2023-04-15T08:38:06;8.35;;;2.80;;
63087;SDS011;49173;43.164;27.786;2023-04-15T08:40:34;3.30;;;1.73;;
63087;SDS011;49173;43.164;27.786;2023-04-15T08:43:08;4.75;;;1.88;;
63087;SDS011;49173;43.164;27.786;2023-04-15T08:45:37;5.22;;;2.00;;
63087;SDS011;49173;43.164;27.786;2023-04-15T08:48:04;5.45;;;2.15;;
63087;SDS011;49173;43.164;27.786;2023-04-15T08:50:31;3.90;;;2.20;;
63087;SDS011;49173;43.164;27.786;2023-04-15T08:53:00;6.22;;;2.75;;
63087;SDS011;49173;43.164;27.786;2023-04-15T08:55:27;4.63;;;2.17;;
63087;SDS011;49173;43.164;27.786;2023-04-15T08:57:58;6.70;;;2.55;;
63087;SDS011;49173;43.164;27.786;2023-04-15T09:00:24;6.40;;;2.70;;
63087;SDS011;49173;43.164;27.786;2023-04-15T09:02:51;4.88;;;1.98;;
63087;SDS011;49173;43.164;27.786;2023-04-15T09:05:36;5.25;;;2.53;;
63087;SDS011;49173;43.164;27.786;2023-04-15T09:08:02;4.57;;;2.00;;
63087;SDS011;49173;43.164;27.786;2023-04-15T09:10:29;6.80;;;2.25;;
63087;SDS011;49173;43.164;27.786;2023-04-15T09:12:56;4.05;;;1.67;;
63087;SDS011;49173;43.164;27.786;2023-04-15T09:15:25;3.35;;;1.85;;
63087;SDS011;49173;43.164;27.786;2023-04-15T09:17:54;4.80;;;2.47;;
63087;SDS011;49173;43.164;27.786;2023-04-15T09:20:21;4.78;;;1.90;;
63087;SDS011;49173;43.164;27.786;2023-04-15T09:22:47;3.78;;;2.15;;
63087;SDS011;49173;43.164;27.786;2023-04-15T09:27:49;4.82;;;1.90;;
63087;SDS011;49173;43.164;27.786;2023-04-15T09:30:16;3.65;;;1.50;;
63087;SDS011;49173;43.164;27.786;2023-04-15T09:32:49;5.00;;;1.80;;
63087;SDS011;49173;43.164;27.786;2023-04-15T09:35:16;6.07;;;2.45;;
63087;SDS011;49173;43.164;27.786;2023-04-15T09:37:43;6.65;;;2.33;;
63087;SDS011;49173;43.164;27.786;2023-04-15T09:40:09;3.63;;;1.90;;
63087;SDS011;49173;43.164;27.786;2023-04-15T09:42:35;4.25;;;2.10;;
63087;SDS011;49173;43.164;27.786;2023-04-15T09:45:09;8.63;;;3.15;;
63087;SDS011;49173;43.164;27.786;2023-04-15T09:47:36;8.88;;;4.00;;
63087;SDS011;49173;43.164;27.786;2023-04-15T09:50:02;7.30;;;3.58;;
63087;SDS011;49173;43.164;27.786;2023-04-15T09:52:28;5.13;;;2.42;;
63087;SDS011;49173;43.164;27.786;2023-04-15T09:54:56;5.80;;;2.30;;
63087;SDS011;49173;43.164;27.786;2023-04-15T09:57:23;8.57;;;3.27;;
63087;SDS011;49173;43.164;27.786;2023-04-15T09:59:49;18.35;;;15.95;;
63087;SDS011;49173;43.164;27.786;2023-04-15T10:02:16;12.38;;;8.43;;
63087;SDS011;49173;43.164;27.786;2023-04-15T10:04:44;25.48;;;19.42;;
63087;SDS011;49173;43.164;27.786;2023-04-15T10:07:13;25.63;;;18.50;;
63087;SDS011;49173;43.164;27.786;2023-04-15T10:09:40;41.45;;;30.67;;
63087;SDS011;49173;43.164;27.786;2023-04-15T10:12:10;14.50;;;9.25;;
63087;SDS011;49173;43.164;27.786;2023-04-15T10:14:36;5.07;;;2.55;;
63087;SDS011;49173;43.164;27.786;2023-04-15T10:17:04;6.25;;;1.85;;
63087;SDS011;49173;43.164;27.786;2023-04-15T10:19:32;4.35;;;1.73;;
63087;SDS011;49173;43.164;27.786;2023-04-15T10:22:01;5.00;;;2.40;;
63087;SDS011;49173;43.164;27.786;2023-04-15T10:24:29;5.50;;;2.40;;
63087;SDS011;49173;43.164;27.786;2023-04-15T10:26:56;5.40;;;2.25;;
63087;SDS011;49173;43.164;27.786;2023-04-15T10:29:24;4.13;;;2.03;;
63087;SDS011;49173;43.164;27.786;2023-04-15T10:31:53;6.72;;;2.83;;
63087;SDS011;49173;43.164;27.786;2023-04-15T10:34:20;6.47;;;3.97;;
63087;SDS011;49173;43.164;27.786;2023-04-15T10:36:48;14.65;;;6.97;;
63087;SDS011;49173;43.164;27.786;2023-04-15T10:42:08;3.65;;;2.20;;
63087;SDS011;49173;43.164;27.786;2023-04-15T10:44:36;4.45;;;2.05;;
63087;SDS011;49173;43.164;27.786;2023-04-15T10:47:15;4.72;;;1.90;;
63087;SDS011;49173;43.164;27.786;2023-04-15T10:49:49;5.68;;;2.13;;
63087;SDS011;49173;43.164;27.786;2023-04-15T10:52:26;5.85;;;2.22;;
63087;SDS011;49173;43.164;27.786;2023-04-15T10:55:03;7.25;;;1.90;;
63087;SDS011;49173;43.164;27.786;2023-04-15T10:57:37;4.05;;;1.77;;
63087;SDS011;49173;43.164;27.786;2023-04-15T11:02:51;5.35;;;1.92;;
63087;SDS011;49173;43.164;27.786;2023-04-15T11:05:22;4.32;;;2.10;;
63087;SDS011;49173;43.164;27.786;2023-04-15T11:08:09;8.93;;;2.85;;
63087;SDS011;49173;43.164;27.786;2023-04-15T11:13:02;3.97;;;1.42;;
63087;SDS011;49173;43.164;27.786;2023-04-15T11:15:32;7.60;;;1.65;;
63087;SDS011;49173;43.164;27.786;2023-04-15T11:18:15;7.90;;;2.10;;
63087;SDS011;49173;43.164;27.786;2023-04-15T11:20:43;8.98;;;2.10;;
63087;SDS011;49173;43.164;27.786;2023-04-15T11:23:11;8.20;;;1.87;;
63087;SDS011;49173;43.164;27.786;2023-04-15T11:25:38;5.78;;;2.00;;
63087;SDS011;49173;43.164;27.786;2023-04-15T11:28:06;4.53;;;1.55;;
63087;SDS011;49173;43.164;27.786;2023-04-15T11:30:38;4.05;;;1.42;;
63087;SDS011;49173;43.164;27.786;2023-04-15T11:33:07;6.05;;;1.50;;
63087;SDS011;49173;43.164;27.786;2023-04-15T11:35:41;6.05;;;1.40;;
63087;SDS011;49173;43.164;27.786;2023-04-15T11:38:12;4.88;;;1.30;;
63087;SDS011;49173;43.164;27.786;2023-04-15T11:40:40;4.85;;;1.55;;
63087;SDS011;49173;43.164;27.786;2023-04-15T11:43:09;3.60;;;1.40;;
63087;SDS011;49173;43.164;27.786;2023-04-15T11:48:24;5.57;;;1.50;;
63087;SDS011;49173;43.164;27.786;2023-04-15T11:51:05;5.32;;;1.48;;
63087;SDS011;49173;43.164;27.786;2023-04-15T11:56:15;3.80;;;1.40;;
63087;SDS011;49173;43.164;27.786;2023-04-15T11:58:47;3.47;;;1.42;;
63087;SDS011;49173;43.164;27.786;2023-04-15T12:01:20;4.78;;;1.33;;
63087;SDS011;49173;43.164;27.786;2023-04-15T12:03:59;5.93;;;1.42;;
63087;SDS011;49173;43.164;27.786;2023-04-15T12:06:34;4.00;;;1.40;;
63087;SDS011;49173;43.164;27.786;2023-04-15T12:11:48;4.00;;;1.63;;
63087;SDS011;49173;43.164;27.786;2023-04-15T12:16:44;4.13;;;1.38;;
63087;SDS011;49173;43.164;27.786;2023-04-15T12:19:17;5.57;;;1.35;;
63087;SDS011;49173;43.164;27.786;2023-04-15T12:21:49;3.20;;;1.15;;
63087;SDS011;49173;43.164;27.786;2023-04-15T12:24:21;3.28;;;1.23;;
63087;SDS011;49173;43.164;27.786;2023-04-15T12:26:51;4.15;;;1.40;;
63087;SDS011;49173;43.164;27.786;2023-04-15T12:29:27;7.55;;;1.42;;
63087;SDS011;49173;43.164;27.786;2023-04-15T12:31:55;3.90;;;1.30;;
63087;SDS011;49173;43.164;27.786;2023-04-15T12:34:31;3.50;;;1.33;;
63087;SDS011;49173;43.164;27.786;2023-04-15T12:37:02;7.32;;;1.67;;
63087;SDS011;49173;43.164;27.786;2023-04-15T12:39:35;5.72;;;1.50;;
63087;SDS011;49173;43.164;27.786;2023-04-15T12:42:06;6.18;;;1.38;;
63087;SDS011;49173;43.164;27.786;2023-04-15T12:44:34;3.22;;;1.20;;
63087;SDS011;49173;43.164;27.786;2023-04-15T12:47:03;10.65;;;1.38;;
63087;SDS011;49173;43.164;27.786;2023-04-15T12:49:30;5.97;;;1.40;;
63087;SDS011;49173;43.164;27.786;2023-04-15T12:51:59;5.13;;;1.42;;
63087;SDS011;49173;43.164;27.786;2023-04-15T12:54:28;6.97;;;1.40;;
63087;SDS011;49173;43.164;27.786;2023-04-15T12:56:59;7.63;;;1.60;;
63087;SDS011;49173;43.164;27.786;2023-04-15T12:59:25;6.18;;;1.63;;
63087;SDS011;49173;43.164;27.786;2023-04-15T13:01:56;5.63;;;1.38;;
63087;SDS011;49173;43.164;27.786;2023-04-15T13:04:27;9.07;;;1.33;;
63087;SDS011;49173;43.164;27.786;2023-04-15T13:06:56;3.15;;;1.30;;
63087;SDS011;49173;43.164;27.786;2023-04-15T13:09:26;9.93;;;1.90;;
63087;SDS011;49173;43.164;27.786;2023-04-15T13:11:53;5.50;;;1.80;;
63087;SDS011;49173;43.164;27.786;2023-04-15T13:14:20;4.75;;;1.45;;
63087;SDS011;49173;43.164;27.786;2023-04-15T13:16:47;6.03;;;1.50;;
63087;SDS011;49173;43.164;27.786;2023-04-15T13:19:15;5.13;;;1.50;;
63087;SDS011;49173;43.164;27.786;2023-04-15T13:21:43;3.00;;;1.40;;
63087;SDS011;49173;43.164;27.786;2023-04-15T13:24:09;5.88;;;1.40;;
63087;SDS011;49173;43.164;27.786;2023-04-15T13:26:37;8.93;;;2.20;;
63087;SDS011;49173;43.164;27.786;2023-04-15T13:29:03;9.43;;;1.67;;
63087;SDS011;49173;43.164;27.786;2023-04-15T13:31:30;5.78;;;1.35;;
63087;SDS011;49173;43.164;27.786;2023-04-15T13:33:57;7.70;;;1.70;;
63087;SDS011;49173;43.164;27.786;2023-04-15T13:36:25;5.63;;;1.65;;
63087;SDS011;49173;43.164;27.786;2023-04-15T13:38:54;4.35;;;2.35;;
63087;SDS011;49173;43.164;27.786;2023-04-15T13:41:22;10.45;;;3.40;;
63087;SDS011;49173;43.164;27.786;2023-04-15T13:43:48;5.90;;;2.00;;
63087;SDS011;49173;43.164;27.786;2023-04-15T13:46:16;8.88;;;1.83;;
63087;SDS011;49173;43.164;27.786;2023-04-15T13:48:44;6.28;;;1.83;;
63087;SDS011;49173;43.164;27.786;2023-04-15T13:51:10;8.15;;;2.05;;
63087;SDS011;49173;43.164;27.786;2023-04-15T13:53:36;9.50;;;3.05;;
63087;SDS011;49173;43.164;27.786;2023-04-15T13:56:06;9.32;;;2.80;;
63087;SDS011;49173;43.164;27.786;2023-04-15T13:58:36;8.82;;;2.30;;
63087;SDS011;49173;43.164;27.786;2023-04-15T14:01:03;9.98;;;3.28;;
63087;SDS011;49173;43.164;27.786;2023-04-15T14:03:31;7.07;;;1.93;;
63087;SDS011;49173;43.164;27.786;2023-04-15T14:05:58;14.60;;;1.83;;
63087;SDS011;49173;43.164;27.786;2023-04-15T14:08:25;5.80;;;2.17;;
63087;SDS011;49173;43.164;27.786;2023-04-15T14:10:56;9.40;;;2.10;;
63087;SDS011;49173;43.164;27.786;2023-04-15T14:13:22;5.95;;;1.50;;
63087;SDS011;49173;43.164;27.786;2023-04-15T14:15:49;5.72;;;1.70;;
63087;SDS011;49173;43.164;27.786;2023-04-15T14:18:16;4.53;;;1.60;;
63087;SDS011;49173;43.164;27.786;2023-04-15T14:20:43;3.40;;;1.17;;
63087;SDS011;49173;43.164;27.786;2023-04-15T14:23:09;36.47;;;10.40;;
63087;SDS011;49173;43.164;27.786;2023-04-15T14:28:05;4.10;;;1.58;;
63087;SDS011;49173;43.164;27.786;2023-04-15T14:30:32;7.20;;;2.22;;
63087;SDS011;49173;43.164;27.786;2023-04-15T14:33:01;11.85;;;2.55;;
63087;SDS011;49173;43.164;27.786;2023-04-15T14:35:31;6.57;;;1.63;;
63087;SDS011;49173;43.164;27.786;2023-04-15T14:37:59;4.80;;;1.80;;
63087;SDS011;49173;43.164;27.786;2023-04-15T14:40:31;7.07;;;2.00;;
63087;SDS011;49173;43.164;27.786;2023-04-15T14:42:58;3.88;;;1.77;;
63087;SDS011;49173;43.164;27.786;2023-04-15T14:45:29;13.18;;;5.40;;
63087;SDS011;49173;43.164;27.786;2023-04-15T14:47:57;6.45;;;2.10;;
63087;SDS011;49173;43.164;27.786;2023-04-15T14:50:24;8.13;;;2.78;;
63087;SDS011;49173;43.164;27.786;2023-04-15T14:52:50;4.82;;;2.08;;
63087;SDS011;49173;43.164;27.786;2023-04-15T14:55:18;5.53;;;1.88;;
63087;SDS011;49173;43.164;27.786;2023-04-15T14:57:45;6.30;;;2.20;;
63087;SDS011;49173;43.164;27.786;2023-04-15T15:00:13;5.20;;;1.52;;